Time;durP1;ratioP1;P1;durP2;ratioP2;P2;SDS_P1;SDS_P2;PMS_P1;PMS_P2;Temp;Humidity;BMP_temperature;BMP_pressure;BME280_temperature;BME280_humidity;BME280_pressure;Samples;Min_cycle;Max_cycle;Signal;HPM_P1;HPM_P2
2022/03/02 00:00:18;;;;;;;19.10;11.10;;;1.30;99.90;;;;;;4991953;28;20931;-72
2022/03/02 00:02:45;;;;;;;25.40;10.30;;;1.20;99.90;;;;;;4991952;28;20455;-71
2022/03/02 00:05:13;;;;;;;17.70;10.57;;;1.20;99.90;;;;;;4991832;28;20491;-72
2022/03/02 00:07:40;;;;;;;17.83;9.90;;;1.10;99.90;;;;;;4992156;28;20931;-72
2022/03/02 00:10:09;;;;;;;17.93;10.30;;;1.10;99.90;;;;;;4992071;28;20672;-72
2022/03/02 00:12:36;;;;;;;15.73;9.07;;;1.00;99.90;;;;;;4989568;28;20533;-72
2022/03/02 00:15:04;;;;;;;20.17;11.10;;;1.00;99.90;;;;;;4992000;28;20956;-72
2022/03/02 00:17:30;;;;;;;17.30;10.67;;;0.90;99.90;;;;;;4991967;28;20494;-72
2022/03/02 00:19:57;;;;;;;18.17;10.47;;;0.80;99.90;;;;;;4989134;28;20459;-72
2022/03/02 00:22:24;;;;;;;20.90;10.83;;;0.80;99.90;;;;;;4992049;28;20519;-72
2022/03/02 00:24:51;;;;;;;18.67;10.60;;;0.80;99.90;;;;;;4991381;28;20459;-72
2022/03/02 00:27:23;;;;;;;17.77;10.70;;;0.70;99.90;;;;;;4991629;28;20459;-71
2022/03/02 00:29:49;;;;;;;21.10;9.63;;;0.60;99.90;;;;;;4990579;28;20549;-72
2022/03/02 00:32:16;;;;;;;20.30;11.10;;;0.60;99.90;;;;;;4991872;28;20534;-72
2022/03/02 00:34:43;;;;;;;20.73;10.53;;;0.60;99.90;;;;;;4991527;28;20980;-71
2022/03/02 00:37:09;;;;;;;20.10;10.17;;;0.60;99.90;;;;;;4991681;28;20451;-72
2022/03/02 00:39:36;;;;;;;19.63;10.10;;;0.50;99.90;;;;;;4991746;28;20451;-72
2022/03/02 00:42:06;;;;;;;23.33;11.53;;;0.50;99.90;;;;;;4992240;28;20450;-72
2022/03/02 00:44:34;;;;;;;22.40;10.40;;;0.50;99.90;;;;;;4990529;28;20459;-72
2022/03/02 00:47:01;;;;;;;17.67;10.00;;;0.50;99.90;;;;;;4991430;28;20878;-72
2022/03/02 00:49:28;;;;;;;17.43;10.00;;;0.50;99.90;;;;;;4991433;28;20490;-71
2022/03/02 00:51:55;;;;;;;26.67;11.20;;;0.50;99.90;;;;;;4991904;28;20459;-72
2022/03/02 00:54:21;;;;;;;18.17;10.37;;;0.50;99.90;;;;;;4991406;28;20604;-71
2022/03/02 00:56:48;;;;;;;20.97;10.60;;;0.40;99.90;;;;;;4991470;28;20545;-72
2022/03/02 00:59:15;;;;;;;21.13;10.70;;;0.40;99.90;;;;;;4990812;28;21018;-73
2022/03/02 01:01:43;;;;;;;19.33;11.30;;;0.50;99.90;;;;;;4990823;28;20505;-73
2022/03/02 01:04:09;;;;;;;21.50;10.90;;;0.40;99.90;;;;;;4991708;28;20455;-72
2022/03/02 01:06:36;;;;;;;23.70;11.50;;;0.40;99.90;;;;;;4991220;28;20995;-72
2022/03/02 01:09:04;;;;;;;16.70;10.43;;;0.40;99.90;;;;;;4991755;28;20483;-72
2022/03/02 01:11:31;;;;;;;19.40;11.20;;;0.40;99.90;;;;;;4990429;28;20467;-72
2022/03/02 01:13:57;;;;;;;17.93;11.17;;;0.40;99.90;;;;;;4990669;28;20509;-73
2022/03/02 01:16:24;;;;;;;22.30;10.97;;;0.40;99.90;;;;;;4990299;28;20545;-72
2022/03/02 01:18:52;;;;;;;19.33;11.03;;;0.20;99.90;;;;;;4991778;28;20456;-72
2022/03/02 01:21:19;;;;;;;17.80;11.13;;;0.20;99.90;;;;;;4990990;28;20537;-71
2022/03/02 01:23:45;;;;;;;19.30;11.53;;;0.10;99.90;;;;;;4990135;28;20514;-72
2022/03/02 01:26:12;;;;;;;17.57;9.73;;;0.10;99.90;;;;;;4990119;28;20482;-73
2022/03/02 01:28:39;;;;;;;17.60;10.43;;;0.20;99.90;;;;;;4989929;28;20497;-71
2022/03/02 01:31:06;;;;;;;19.20;10.80;;;0.10;99.90;;;;;;4990725;28;20521;-72
2022/03/02 01:33:33;;;;;;;17.63;10.90;;;0.10;99.90;;;;;;4989751;28;20886;-71
2022/03/02 01:36:01;;;;;;;25.50;10.43;;;0.10;99.90;;;;;;4990807;28;20475;-72
2022/03/02 01:38:27;;;;;;;17.03;10.93;;;0.10;99.90;;;;;;4989964;28;20447;-72
2022/03/02 01:40:54;;;;;;;17.73;10.30;;;0.10;99.90;;;;;;4990773;28;20863;-72
2022/03/02 01:43:21;;;;;;;16.60;10.70;;;0.20;99.90;;;;;;4990731;28;20459;-72
2022/03/02 01:45:47;;;;;;;17.10;9.60;;;0.10;99.90;;;;;;4991232;28;20525;-72
2022/03/02 01:48:14;;;;;;;20.97;9.93;;;0.10;99.90;;;;;;4990774;28;20483;-72
2022/03/02 01:50:41;;;;;;;15.17;9.97;;;0.10;99.90;;;;;;4990994;28;21095;-71
2022/03/02 01:53:09;;;;;;;21.47;11.27;;;0.10;99.90;;;;;;4989864;28;21014;-71
2022/03/02 01:55:36;;;;;;;15.83;10.27;;;0.10;99.90;;;;;;4991181;28;20553;-72
2022/03/02 01:58:03;;;;;;;17.03;10.57;;;0.10;99.90;;;;;;4991448;28;20849;-72
2022/03/02 02:00:31;;;;;;;20.60;11.50;;;0.10;99.90;;;;;;4990822;28;20451;-72
2022/03/02 02:02:58;;;;;;;19.40;10.80;;;0.10;99.90;;;;;;4990523;28;20459;-72
2022/03/02 02:05:24;;;;;;;21.30;12.33;;;0.10;99.90;;;;;;4990714;28;20486;-72
2022/03/02 02:07:51;;;;;;;20.03;10.23;;;0.10;99.90;;;;;;4991074;28;20459;-72
2022/03/02 02:10:19;;;;;;;21.97;11.20;;;0.20;99.90;;;;;;4990545;28;20487;-72
2022/03/02 02:12:46;;;;;;;20.27;10.90;;;0.20;99.90;;;;;;4991423;28;20462;-72
2022/03/02 02:15:13;;;;;;;26.37;11.90;;;0.10;99.90;;;;;;4990271;28;21050;-72
2022/03/02 02:17:40;;;;;;;22.60;11.60;;;0.10;99.90;;;;;;4990834;28;20514;-72
2022/03/02 02:20:09;;;;;;;21.53;12.47;;;0.10;99.90;;;;;;4990449;28;20832;-72
2022/03/02 02:22:39;;;;;;;23.93;12.20;;;0.10;99.90;;;;;;4991287;28;20517;-72
2022/03/02 02:25:07;;;;;;;21.57;12.10;;;0.10;99.90;;;;;;4990799;28;20502;-72
2022/03/02 02:27:34;;;;;;;23.67;12.07;;;0.20;99.90;;;;;;4990565;28;20525;-72
2022/03/02 02:30:02;;;;;;;19.40;10.87;;;0.20;99.90;;;;;;4990056;28;20548;-72
2022/03/02 02:32:29;;;;;;;21.13;11.77;;;0.20;99.90;;;;;;4990496;28;20513;-72
2022/03/02 02:34:57;;;;;;;23.03;12.87;;;0.20;99.90;;;;;;4991803;28;20947;-73
2022/03/02 02:37:25;;;;;;;24.33;12.80;;;0.20;99.90;;;;;;4994049;28;20466;-72
2022/03/02 02:39:57;;;;;;;21.30;12.10;;;0.20;99.90;;;;;;4993931;28;20454;-72
2022/03/02 02:42:24;;;;;;;22.23;12.83;;;0.20;99.90;;;;;;4994275;28;20459;-72
2022/03/02 02:44:51;;;;;;;21.57;13.10;;;0.10;99.90;;;;;;4993520;28;20457;-72
2022/03/02 02:47:18;;;;;;;19.80;11.80;;;0.20;99.90;;;;;;4993733;28;20939;-73
2022/03/02 02:49:44;;;;;;;21.00;11.83;;;0.20;99.90;;;;;;4993869;28;20557;-72
2022/03/02 02:52:11;;;;;;;25.00;13.37;;;0.20;99.90;;;;;;4993707;28;20459;-72
2022/03/02 02:54:38;;;;;;;18.50;11.80;;;0.20;99.90;;;;;;4994201;28;20463;-72
2022/03/02 02:57:06;;;;;;;23.43;13.20;;;0.20;99.90;;;;;;4993420;28;20483;-72
2022/03/02 02:59:32;;;;;;;24.83;12.50;;;0.20;99.90;;;;;;4993814;28;20525;-72
2022/03/02 03:01:59;;;;;;;23.40;12.30;;;0.20;99.90;;;;;;4993879;28;20859;-72
2022/03/02 03:04:26;;;;;;;24.10;13.30;;;0.20;99.90;;;;;;4993015;28;20459;-72
2022/03/02 03:06:53;;;;;;;21.40;11.80;;;0.20;99.90;;;;;;4993479;28;20479;-73
2022/03/02 03:09:19;;;;;;;28.70;14.30;;;0.20;99.90;;;;;;4992804;28;20483;-72
2022/03/02 03:11:46;;;;;;;24.83;12.07;;;0.30;99.90;;;;;;4993165;28;20527;-72
2022/03/02 03:14:15;;;;;;;23.07;12.80;;;0.30;99.90;;;;;;4993260;28;20459;-72
2022/03/02 03:16:42;;;;;;;21.67;12.10;;;0.30;99.90;;;;;;4993532;28;20885;-72
2022/03/02 03:19:09;;;;;;;23.10;12.73;;;0.30;99.90;;;;;;4993585;28;20455;-72
2022/03/02 03:21:36;;;;;;;21.67;12.17;;;0.30;99.90;;;;;;4992309;28;20932;-72
2022/03/02 03:24:04;;;;;;;22.17;12.37;;;0.30;99.90;;;;;;4992960;28;20455;-72
2022/03/02 03:26:31;;;;;;;34.90;12.30;;;0.30;99.90;;;;;;4992808;28;20475;-72
2022/03/02 03:28:57;;;;;;;25.73;12.97;;;0.30;99.90;;;;;;4992433;28;20888;-72
2022/03/02 03:31:25;;;;;;;25.30;13.00;;;0.40;99.90;;;;;;4993437;28;20510;-71
2022/03/02 03:33:52;;;;;;;24.33;12.33;;;0.40;99.90;;;;;;4993132;28;20510;-72
2022/03/02 03:36:19;;;;;;;26.90;13.03;;;0.40;99.90;;;;;;4993167;28;20549;-73
2022/03/02 03:38:45;;;;;;;22.60;12.40;;;0.40;99.90;;;;;;4992149;28;20455;-72
2022/03/02 03:41:12;;;;;;;24.30;12.97;;;0.50;99.90;;;;;;4993469;28;20539;-72
2022/03/02 03:43:39;;;;;;;21.73;12.60;;;0.50;99.90;;;;;;4992974;28;20622;-73
2022/03/02 03:46:06;;;;;;;23.77;12.10;;;0.50;99.90;;;;;;4992174;28;20475;-72
2022/03/02 03:48:34;;;;;;;23.50;12.60;;;0.50;99.90;;;;;;4992251;28;20517;-72
2022/03/02 03:51:00;;;;;;;23.77;12.77;;;0.50;99.90;;;;;;4992395;28;20498;-72
2022/03/02 03:53:27;;;;;;;23.23;13.20;;;0.60;99.90;;;;;;4992161;28;20456;-72
2022/03/02 03:55:54;;;;;;;23.00;12.43;;;0.60;99.90;;;;;;4992984;28;20479;-72
2022/03/02 03:58:21;;;;;;;22.03;11.90;;;0.60;99.90;;;;;;4993315;28;20509;-72
2022/03/02 04:00:47;;;;;;;29.87;13.17;;;0.60;99.90;;;;;;4992994;28;20455;-72
2022/03/02 04:03:14;;;;;;;21.13;11.73;;;0.70;99.90;;;;;;4992777;28;20944;-72
2022/03/02 04:05:42;;;;;;;22.20;12.10;;;0.70;99.90;;;;;;4992186;28;20486;-73
2022/03/02 04:08:09;;;;;;;21.70;12.00;;;0.70;99.90;;;;;;4992581;28;20539;-72
2022/03/02 04:10:35;;;;;;;20.97;11.80;;;0.60;99.90;;;;;;4992652;28;20537;-72
2022/03/02 04:13:02;;;;;;;21.80;12.03;;;0.60;99.90;;;;;;4992941;28;20459;-72
2022/03/02 04:15:29;;;;;;;22.20;12.40;;;0.60;99.90;;;;;;4992428;28;20475;-72
2022/03/02 04:17:55;;;;;;;23.37;12.70;;;0.60;99.90;;;;;;4992466;28;20857;-72
2022/03/02 04:20:22;;;;;;;22.00;12.53;;;0.60;99.90;;;;;;4991925;28;20501;-72
2022/03/02 04:22:50;;;;;;;21.97;11.70;;;0.60;99.90;;;;;;4992523;28;20509;-72
2022/03/02 04:25:17;;;;;;;20.80;12.07;;;0.70;99.90;;;;;;4992347;28;20474;-71
2022/03/02 04:27:44;;;;;;;24.60;11.43;;;0.60;99.90;;;;;;4992033;28;20455;-72
2022/03/02 04:30:13;;;;;;;20.40;11.13;;;0.70;99.90;;;;;;4992132;28;20483;-72
2022/03/02 04:32:40;;;;;;;25.33;13.37;;;0.70;99.90;;;;;;4991534;28;20456;-72
2022/03/02 04:35:09;;;;;;;25.70;13.47;;;0.70;99.90;;;;;;4992204;28;20463;-72
2022/03/02 04:37:36;;;;;;;19.37;11.57;;;0.70;99.90;;;;;;4988922;28;20459;-72
2022/03/02 04:40:06;;;;;;;23.30;12.57;;;0.70;99.90;;;;;;4992580;28;20444;-72
2022/03/02 04:42:33;;;;;;;22.93;13.07;;;0.70;99.90;;;;;;4991617;28;20459;-72
2022/03/02 04:44:59;;;;;;;22.57;11.90;;;0.80;99.90;;;;;;4991668;28;20510;-72
2022/03/02 04:47:26;;;;;;;18.80;11.43;;;0.70;99.90;;;;;;4991126;28;20448;-72
2022/03/02 04:49:53;;;;;;;21.13;12.03;;;0.70;99.90;;;;;;4991320;28;20507;-72
2022/03/02 04:52:20;;;;;;;21.80;11.23;;;0.80;99.90;;;;;;4991330;28;20951;-72
2022/03/02 04:57:32;;;;;;;18.40;11.63;;;0.80;99.90;;;;;;4991099;28;20817;-72
2022/03/02 04:59:59;;;;;;;16.60;10.73;;;0.80;99.90;;;;;;4990475;28;20476;-72
2022/03/02 05:02:26;;;;;;;21.50;11.50;;;0.80;99.90;;;;;;4991608;28;20463;-72
2022/03/02 05:04:52;;;;;;;22.07;11.63;;;0.80;99.90;;;;;;4990145;28;20459;-72
2022/03/02 05:07:19;;;;;;;23.60;11.80;;;0.80;99.90;;;;;;4991990;28;20451;-72
2022/03/02 05:09:45;;;;;;;21.83;12.80;;;0.70;99.90;;;;;;4991060;28;21002;-72
2022/03/02 05:12:12;;;;;;;24.83;12.17;;;0.70;99.90;;;;;;4991715;28;20509;-72
2022/03/02 05:14:40;;;;;;;23.67;12.23;;;0.70;99.90;;;;;;4990763;28;20510;-72
2022/03/02 05:17:07;;;;;;;24.93;13.23;;;0.70;99.90;;;;;;4992000;28;20471;-73
2022/03/02 05:19:34;;;;;;;23.77;12.63;;;0.60;99.90;;;;;;4991413;28;20879;-72
2022/03/02 05:22:00;;;;;;;23.40;13.40;;;0.60;99.90;;;;;;4990844;28;20461;-72
2022/03/02 05:24:27;;;;;;;19.93;12.03;;;0.60;99.90;;;;;;4990609;28;20987;-72
2022/03/02 05:26:54;;;;;;;23.13;12.83;;;0.60;99.90;;;;;;4991483;28;20529;-73
2022/03/02 05:29:20;;;;;;;22.87;11.37;;;0.60;99.90;;;;;;4991311;28;20529;-72
2022/03/02 05:31:48;;;;;;;22.67;11.87;;;0.60;99.90;;;;;;4990808;28;21007;-72
2022/03/02 05:34:15;;;;;;;18.97;11.83;;;0.60;99.90;;;;;;4990906;28;20511;-72
2022/03/02 05:36:41;;;;;;;21.13;11.97;;;0.60;99.90;;;;;;4990918;28;20546;-72
2022/03/02 05:39:08;;;;;;;19.63;12.17;;;0.60;99.90;;;;;;4991437;28;20451;-73
2022/03/02 05:41:35;;;;;;;22.70;11.53;;;0.60;99.90;;;;;;4991387;28;20471;-72
2022/03/02 05:44:02;;;;;;;22.70;12.00;;;0.60;99.90;;;;;;4990361;28;20458;-72
2022/03/02 05:46:29;;;;;;;20.93;11.33;;;0.60;99.90;;;;;;4990758;28;20510;-72
2022/03/02 05:48:56;;;;;;;20.50;12.20;;;0.60;99.90;;;;;;4990483;28;20522;-72
2022/03/02 05:51:23;;;;;;;20.43;11.63;;;0.60;99.90;;;;;;4988859;28;20487;-71
2022/03/02 05:53:50;;;;;;;19.77;11.00;;;0.60;99.90;;;;;;4990268;28;21033;-71
2022/03/02 05:56:17;;;;;;;28.50;12.00;;;0.60;99.90;;;;;;4990462;28;20533;-71
2022/03/02 05:58:43;;;;;;;22.53;11.20;;;0.70;99.90;;;;;;4971845;28;20464;-71
2022/03/02 06:01:10;;;;;;;20.17;11.50;;;0.70;99.90;;;;;;4977070;28;20940;-71
2022/03/02 06:03:37;;;;;;;24.00;12.10;;;0.70;99.90;;;;;;4990124;28;20534;-71
2022/03/02 06:06:05;;;;;;;21.07;11.03;;;0.70;99.90;;;;;;4990287;28;20482;-71
2022/03/02 06:08:31;;;;;;;23.47;12.33;;;0.70;99.90;;;;;;4990538;28;20873;-72
2022/03/02 06:10:59;;;;;;;24.10;12.60;;;0.70;99.90;;;;;;4994484;28;20483;-71
2022/03/02 06:13:26;;;;;;;26.43;14.10;;;0.40;99.90;;;;;;4993882;28;20454;-71
2022/03/02 06:15:53;;;;;;;21.90;11.10;;;0.70;99.90;;;;;;4994376;28;20529;-71
2022/03/02 06:18:20;;;;;;;24.33;12.57;;;0.70;99.90;;;;;;4993894;28;20459;-72
2022/03/02 06:20:51;;;;;;;22.43;11.73;;;0.70;99.90;;;;;;4994175;28;20463;-72
2022/03/02 06:23:20;;;;;;;23.77;11.10;;;0.70;99.90;;;;;;4992718;28;21049;-72
2022/03/02 06:25:48;;;;;;;22.37;12.03;;;0.80;99.90;;;;;;4975341;28;20480;-71
2022/03/02 06:28:15;;;;;;;29.93;12.20;;;0.80;99.90;;;;;;4979458;28;20959;-72
2022/03/02 06:30:42;;;;;;;20.87;11.37;;;0.80;99.90;;;;;;4994461;28;20508;-72
2022/03/02 06:33:09;;;;;;;20.73;11.70;;;0.80;99.90;;;;;;4993733;28;20955;-71
2022/03/02 06:35:36;;;;;;;21.50;10.83;;;0.80;99.90;;;;;;4994140;28;20537;-71
2022/03/02 06:38:02;;;;;;;22.87;12.63;;;0.90;99.90;;;;;;4993496;28;20454;-72
2022/03/02 06:40:30;;;;;;;26.23;13.40;;;0.80;99.90;;;;;;4993061;28;20459;-71
2022/03/02 06:43:01;;;;;;;27.90;11.70;;;0.90;99.90;;;;;;4994117;28;20451;-71
2022/03/02 06:45:35;;;;;;;21.87;11.50;;;0.90;99.90;;;;;;4993358;28;20482;-71
2022/03/02 06:48:08;;;;;;;33.43;12.27;;;1.00;99.90;;;;;;4993499;28;20454;-72
2022/03/02 06:50:38;;;;;;;25.63;12.50;;;1.10;99.90;;;;;;4993141;28;20490;-71
2022/03/02 06:53:11;;;;;;;24.53;12.53;;;1.20;99.90;;;;;;4994287;28;20504;-72
2022/03/02 06:55:41;;;;;;;24.40;11.70;;;1.30;99.90;;;;;;4993132;28;20573;-72
2022/03/02 06:58:10;;;;;;;27.73;13.83;;;1.30;99.90;;;;;;4994192;28;20479;-71
2022/03/02 07:00:38;;;;;;;30.03;12.77;;;1.30;99.90;;;;;;4993507;28;20451;-73
2022/03/02 07:03:06;;;;;;;25.90;12.73;;;1.40;99.90;;;;;;4993937;28;20506;-73
2022/03/02 07:05:33;;;;;;;28.03;13.10;;;1.50;99.90;;;;;;4992874;28;20479;-73
2022/03/02 07:08:03;;;;;;;24.40;12.60;;;1.50;99.90;;;;;;4993110;28;20802;-73
2022/03/02 07:10:32;;;;;;;22.37;12.70;;;1.60;99.90;;;;;;4993515;28;20499;-73
2022/03/02 07:13:02;;;;;;;25.07;12.47;;;1.70;99.90;;;;;;4992978;28;20455;-75
2022/03/02 07:15:28;;;;;;;28.47;13.03;;;1.80;99.90;;;;;;4993042;28;20472;-74
2022/03/02 07:17:55;;;;;;;27.13;12.90;;;1.80;99.90;;;;;;4993069;28;20467;-73
2022/03/02 07:20:22;;;;;;;27.80;14.50;;;1.90;99.90;;;;;;4992893;28;20443;-73
2022/03/02 07:22:52;;;;;;;28.17;12.93;;;1.90;99.90;;;;;;4991616;28;20529;-73
2022/03/02 07:25:22;;;;;;;27.93;12.50;;;1.90;99.90;;;;;;4986659;28;21003;-73
2022/03/02 07:27:50;;;;;;;26.53;13.10;;;1.90;99.90;;;;;;4991508;28;20502;-73
2022/03/02 07:30:18;;;;;;;27.97;12.30;;;1.90;99.90;;;;;;4991441;28;20518;-72
2022/03/02 07:32:46;;;;;;;34.67;14.50;;;2.00;99.90;;;;;;4992611;28;20509;-73
2022/03/02 07:35:15;;;;;;;28.53;13.77;;;1.90;99.90;;;;;;4990058;28;20893;-73
2022/03/02 07:37:43;;;;;;;30.40;14.40;;;1.90;99.90;;;;;;4992366;28;20455;-73
2022/03/02 07:40:11;;;;;;;21.63;13.10;;;2.00;99.90;;;;;;4988650;28;20952;-74
2022/03/02 07:42:38;;;;;;;31.23;13.37;;;2.10;99.90;;;;;;4992841;28;20460;-73
2022/03/02 07:45:06;;;;;;;32.20;13.20;;;2.10;99.90;;;;;;4991655;28;20479;-73
2022/03/02 07:47:35;;;;;;;22.57;12.00;;;2.20;99.90;;;;;;4992066;28;20463;-73
2022/03/02 07:50:02;;;;;;;29.43;12.70;;;2.30;99.90;;;;;;4992581;28;20538;-74
2022/03/02 07:52:31;;;;;;;24.80;13.40;;;2.50;99.90;;;;;;4992001;28;20459;-74
2022/03/02 07:55:07;;;;;;;24.23;12.97;;;2.60;99.90;;;;;;4989584;28;20866;-73
2022/03/02 07:57:34;;;;;;;28.83;12.50;;;2.70;99.90;;;;;;4991573;28;20550;-74
2022/03/02 08:00:03;;;;;;;20.43;12.00;;;2.80;99.90;;;;;;4991706;28;20529;-74
2022/03/02 08:02:32;;;;;;;21.60;11.73;;;3.00;99.90;;;;;;4990806;28;20465;-73
2022/03/02 08:05:02;;;;;;;28.47;13.17;;;3.20;99.90;;;;;;4990791;28;20456;-74
2022/03/02 08:07:29;;;;;;;23.70;12.83;;;3.50;99.90;;;;;;4992573;28;20474;-74
2022/03/02 08:09:55;;;;;;;29.07;13.60;;;3.70;99.90;;;;;;4991224;28;20463;-74
2022/03/02 08:12:24;;;;;;;26.73;13.07;;;3.90;99.90;;;;;;4990841;28;20466;-74
2022/03/02 08:14:51;;;;;;;21.13;12.63;;;4.10;99.90;;;;;;4990536;28;20542;-74
2022/03/02 08:17:20;;;;;;;24.87;13.53;;;4.20;99.90;;;;;;4990107;28;20550;-76
2022/03/02 08:19:48;;;;;;;29.97;15.57;;;4.20;99.90;;;;;;4991750;28;20534;-74
2022/03/02 08:22:18;;;;;;;30.97;15.27;;;4.20;99.90;;;;;;4991300;28;20462;-74
2022/03/02 08:24:51;;;;;;;40.07;15.80;;;4.20;99.90;;;;;;4983684;28;20505;-73
2022/03/02 08:27:20;;;;;;;38.03;15.57;;;4.20;99.90;;;;;;4991187;28;20466;-74
2022/03/02 08:29:55;;;;;;;34.60;14.50;;;4.30;99.90;;;;;;4992024;28;21025;-73
2022/03/02 08:32:22;;;;;;;43.23;15.13;;;4.40;99.90;;;;;;4992115;28;20482;-73
2022/03/02 08:34:50;;;;;;;30.73;14.93;;;4.50;99.90;;;;;;4990416;28;20455;-73
2022/03/02 08:37:19;;;;;;;23.77;12.93;;;4.50;99.90;;;;;;4986878;28;20546;-73
2022/03/02 08:39:46;;;;;;;25.10;14.03;;;4.50;99.90;;;;;;4991960;28;20463;-74
2022/03/02 08:42:13;;;;;;;24.97;13.17;;;4.50;99.90;;;;;;4991720;28;20450;-74
2022/03/02 08:44:40;;;;;;;31.30;13.90;;;4.50;99.90;;;;;;4991177;28;20514;-74
2022/03/02 08:47:09;;;;;;;31.63;14.07;;;4.60;99.90;;;;;;4990990;28;20537;-73
2022/03/02 08:49:35;;;;;;;22.80;13.53;;;4.70;99.90;;;;;;4991530;28;20466;-73
2022/03/02 08:52:05;;;;;;;32.23;13.57;;;4.70;99.90;;;;;;4991336;28;20483;-74
2022/03/02 08:54:39;;;;;;;22.13;13.20;;;4.70;99.90;;;;;;4991230;28;20542;-73
2022/03/02 08:57:06;;;;;;;29.37;14.07;;;4.60;99.90;;;;;;4989743;28;20850;-71
2022/03/02 08:59:34;;;;;;;31.97;14.40;;;4.60;99.90;;;;;;4991895;28;20455;-71
2022/03/02 09:02:05;;;;;;;39.63;13.67;;;4.50;99.90;;;;;;4990681;28;20513;-71
2022/03/02 09:04:34;;;;;;;27.17;13.97;;;4.50;99.90;;;;;;4990869;28;20487;-70
2022/03/02 09:07:03;;;;;;;27.30;13.13;;;4.50;99.90;;;;;;4991367;28;21031;-71
2022/03/02 09:09:29;;;;;;;23.23;12.33;;;4.60;99.90;;;;;;4990931;28;20458;-71
2022/03/02 09:11:58;;;;;;;23.87;12.70;;;4.70;99.90;;;;;;4991326;28;20604;-71
2022/03/02 09:14:25;;;;;;;24.10;13.03;;;4.70;99.90;;;;;;4989754;28;20963;-72
2022/03/02 09:16:52;;;;;;;25.37;12.40;;;4.70;99.90;;;;;;4990789;28;20530;-71
2022/03/02 09:19:19;;;;;;;22.33;13.73;;;4.80;99.90;;;;;;4990887;28;20462;-71
2022/03/02 09:21:47;;;;;;;31.40;13.40;;;4.90;99.90;;;;;;4991574;28;20483;-71
2022/03/02 09:24:14;;;;;;;24.00;13.20;;;5.10;99.90;;;;;;4990633;28;20533;-71
2022/03/02 09:26:41;;;;;;;24.00;12.77;;;5.30;99.90;;;;;;4990471;28;20478;-71
2022/03/02 09:29:09;;;;;;;28.03;12.50;;;5.90;99.90;;;;;;4990848;28;20459;-71
2022/03/02 09:31:37;;;;;;;23.07;12.73;;;6.60;99.90;;;;;;4991323;28;20489;-71
2022/03/02 09:34:08;;;;;;;23.83;13.53;;;7.10;99.90;;;;;;4991054;28;20517;-71
2022/03/02 09:36:37;;;;;;;26.83;12.20;;;7.40;99.90;;;;;;4990299;28;20475;-71
2022/03/02 09:39:05;;;;;;;25.13;12.77;;;7.40;99.90;;;;;;4987908;28;20510;-71
2022/03/02 09:41:42;;;;;;;20.63;12.37;;;7.50;99.90;;;;;;4990761;28;20455;-71
2022/03/02 09:44:12;;;;;;;20.30;11.63;;;7.70;99.90;;;;;;4990681;28;20877;-72
2022/03/02 09:46:40;;;;;;;32.30;12.60;;;8.30;99.90;;;;;;4992425;28;20530;-71
2022/03/02 09:49:09;;;;;;;19.83;12.50;;;9.10;99.90;;;;;;4995195;28;20517;-71
2022/03/02 09:51:37;;;;;;;16.00;10.60;;;9.70;99.90;;;;;;4994008;28;20486;-72
2022/03/02 09:54:05;;;;;;;14.70;9.40;;;10.20;99.90;;;;;;4994607;28;20509;-71
2022/03/02 09:56:35;;;;;;;18.90;10.40;;;10.20;99.90;;;;;;4994339;28;21061;-71
2022/03/02 09:59:04;;;;;;;18.80;10.40;;;10.40;99.90;;;;;;4995209;28;20550;-72
2022/03/02 10:01:34;;;;;;;15.20;9.63;;;10.50;99.90;;;;;;4994379;28;20473;-72
2022/03/02 10:04:13;;;;;;;15.00;9.90;;;10.90;99.90;;;;;;4994216;28;20462;-71
2022/03/02 10:06:43;;;;;;;17.37;9.83;;;10.70;98.90;;;;;;4994770;28;20475;-71
2022/03/02 10:09:11;;;;;;;12.33;8.70;;;10.40;98.30;;;;;;4995171;28;20451;-71
2022/03/02 10:11:42;;;;;;;12.30;9.40;;;10.20;97.90;;;;;;4995011;28;21010;-71
2022/03/02 10:14:09;;;;;;;13.77;9.33;;;10.40;97.60;;;;;;4993944;28;20443;-72
2022/03/02 10:16:43;;;;;;;15.80;10.57;;;10.70;97.20;;;;;;4994246;28;20537;-71
2022/03/02 10:19:20;;;;;;;16.50;10.13;;;11.10;97.10;;;;;;4995027;28;20451;-71
2022/03/02 10:22:03;;;;;;;18.27;9.90;;;11.40;96.40;;;;;;4994842;28;20520;-71
2022/03/02 10:24:33;;;;;;;18.63;11.33;;;11.20;96.10;;;;;;4993301;28;20455;-70
2022/03/02 10:27:06;;;;;;;14.50;9.67;;;11.10;96.70;;;;;;4994052;28;20902;-70
2022/03/02 10:29:45;;;;;;;13.47;9.23;;;10.80;95.80;;;;;;4994225;28;20841;-70
2022/03/02 10:32:17;;;;;;;14.00;9.70;;;10.60;95.50;;;;;;4993899;28;20838;-70
2022/03/02 10:34:49;;;;;;;14.43;9.60;;;10.70;97.10;;;;;;4993575;28;20871;-70
2022/03/02 10:37:29;;;;;;;12.30;8.77;;;10.30;96.00;;;;;;4993851;28;20473;-70
2022/03/02 10:40:05;;;;;;;18.10;10.00;;;9.80;96.50;;;;;;4993496;28;20470;-70
2022/03/02 10:42:35;;;;;;;13.50;9.83;;;9.60;97.20;;;;;;4993785;28;20450;-70
2022/03/02 10:45:12;;;;;;;18.40;9.40;;;9.60;97.10;;;;;;4992627;28;20555;-70
2022/03/02 10:47:48;;;;;;;13.07;9.10;;;9.90;98.00;;;;;;4993120;28;21221;-71
2022/03/02 10:50:15;;;;;;;14.40;9.60;;;10.10;95.80;;;;;;4993278;28;21029;-70
2022/03/02 10:52:42;;;;;;;14.87;10.17;;;10.00;96.50;;;;;;4993806;28;20541;-70
2022/03/02 10:55:11;;;;;;;13.37;9.50;;;10.40;96.60;;;;;;4992277;28;20482;-70
2022/03/02 10:57:40;;;;;;;18.67;10.13;;;10.70;97.60;;;;;;4992731;28;20455;-70
2022/03/02 11:00:12;;;;;;;18.80;9.87;;;10.90;96.60;;;;;;4992970;28;20505;-70
2022/03/02 11:02:41;;;;;;;12.80;8.30;;;10.50;96.50;;;;;;4993455;28;20606;-71
2022/03/02 11:05:12;;;;;;;14.97;10.23;;;10.70;95.60;;;;;;4992514;28;20501;-71
2022/03/02 11:07:39;;;;;;;19.27;10.80;;;11.10;95.40;;;;;;4993713;28;20541;-71
2022/03/02 11:10:08;;;;;;;15.13;9.27;;;11.30;96.50;;;;;;4993690;28;20455;-71
2022/03/02 11:12:35;;;;;;;12.70;9.33;;;11.50;96.30;;;;;;4992931;28;20490;-71
2022/03/02 11:15:04;;;;;;;16.00;10.20;;;11.80;95.10;;;;;;4992637;28;20459;-71
2022/03/02 11:17:31;;;;;;;13.73;10.17;;;12.00;94.60;;;;;;4993762;28;20518;-72
2022/03/02 11:19:59;;;;;;;14.83;9.90;;;11.90;94.60;;;;;;4993076;28;20943;-74
2022/03/02 11:22:28;;;;;;;13.87;9.77;;;11.80;95.00;;;;;;4991430;28;21301;-73
2022/03/02 11:24:57;;;;;;;12.10;9.27;;;12.00;93.00;;;;;;4990229;28;20506;-73
2022/03/02 11:27:28;;;;;;;15.03;10.00;;;11.90;93.90;;;;;;4991916;28;20455;-73
2022/03/02 11:30:07;;;;;;;15.70;9.50;;;12.10;94.10;;;;;;4992462;28;20451;-74
2022/03/02 11:32:35;;;;;;;17.30;9.53;;;11.80;92.60;;;;;;4989828;28;20487;-74
2022/03/02 11:35:03;;;;;;;12.60;9.27;;;12.00;94.10;;;;;;4992233;28;20510;-73
2022/03/02 11:37:33;;;;;;;12.53;8.70;;;12.10;93.70;;;;;;4992093;28;20460;-73
2022/03/02 11:40:01;;;;;;;13.60;8.90;;;12.00;90.30;;;;;;4992844;28;20451;-73
2022/03/02 11:42:30;;;;;;;12.80;8.70;;;11.70;90.90;;;;;;4993143;28;20510;-73
2022/03/02 11:44:59;;;;;;;13.47;8.83;;;11.40;90.80;;;;;;4992430;28;20459;-74
2022/03/02 11:47:34;;;;;;;15.43;9.57;;;11.10;92.00;;;;;;4992934;28;20542;-74
2022/03/02 11:50:01;;;;;;;11.23;9.10;;;11.20;91.80;;;;;;4992433;28;20522;-74
2022/03/02 11:52:29;;;;;;;14.70;9.27;;;11.30;92.00;;;;;;4992396;28;20479;-75
2022/03/02 11:55:00;;;;;;;13.17;9.10;;;11.40;91.60;;;;;;4992457;28;20478;-75
2022/03/02 11:57:29;;;;;;;11.63;8.27;;;11.80;92.10;;;;;;4992928;28;20435;-75
2022/03/02 12:00:09;;;;;;;12.67;9.07;;;11.90;91.60;;;;;;4991293;28;20561;-75
2022/03/02 12:02:42;;;;;;;16.33;9.37;;;12.20;92.20;;;;;;4992442;28;20447;-75
2022/03/02 12:05:10;;;;;;;12.50;8.60;;;12.70;91.10;;;;;;4990968;28;21022;-74
2022/03/02 12:07:38;;;;;;;12.33;8.90;;;12.30;88.60;;;;;;4992602;28;20463;-75
2022/03/02 12:10:16;;;;;;;14.07;8.90;;;12.20;88.50;;;;;;4992690;28;20450;-74
2022/03/02 12:12:43;;;;;;;11.07;8.40;;;12.40;91.00;;;;;;4992380;28;21074;-75
2022/03/02 12:15:10;;;;;;;10.40;8.77;;;13.00;90.00;;;;;;4989872;28;20550;-73
2022/03/02 12:17:37;;;;;;;14.40;8.97;;;12.90;86.30;;;;;;4992744;28;20450;-73
2022/03/02 12:20:07;;;;;;;11.90;8.83;;;12.30;88.50;;;;;;4991436;28;21054;-75
2022/03/02 12:22:36;;;;;;;13.60;8.67;;;12.50;90.60;;;;;;4992298;28;20510;-74
2022/03/02 12:25:08;;;;;;;16.57;9.57;;;12.60;90.10;;;;;;4988374;28;20482;-73
2022/03/02 12:27:35;;;;;;;12.87;9.20;;;13.00;86.80;;;;;;4990317;28;20451;-74
2022/03/02 12:30:05;;;;;;;14.70;9.87;;;13.10;83.90;;;;;;4991713;28;20447;-73
2022/03/02 12:32:33;;;;;;;15.87;9.40;;;12.50;85.60;;;;;;4991465;28;20490;-73
2022/03/02 12:35:02;;;;;;;13.83;9.77;;;12.20;85.80;;;;;;4991608;28;20455;-73
2022/03/02 12:37:30;;;;;;;16.43;9.30;;;11.80;87.10;;;;;;4991472;28;20459;-73
2022/03/02 12:39:57;;;;;;;16.57;9.90;;;11.90;90.10;;;;;;4987988;28;20517;-74
2022/03/02 12:42:25;;;;;;;14.03;9.10;;;12.30;90.30;;;;;;4991932;28;20494;-73